Time;durP1;ratioP1;P1;durP2;ratioP2;P2;SDS_P1;SDS_P2;PMS_P1;PMS_P2;Temp;Humidity;BMP_temperature;BMP_pressure;BME280_temperature;BME280_humidity;BME280_pressure;Samples;Min_cycle;Max_cycle;Signal;HPM_P1;HPM_P2
2024/03/02 06:22:16;;;;;;;5.70;4.07;;;17.10;64.50;;;;;;6092922;23;20206;-87
2024/03/02 06:25:46;;;;;;;6.43;4.20;;;17.10;64.50;;;;;;6073897;23;20172;-86
2024/03/02 06:28:15;;;;;;;6.32;3.95;;;17.00;64.40;;;;;;5902941;24;20205;-86
2024/03/02 06:30:57;;;;;;;6.03;4.40;;;17.00;64.30;;;;;;5873920;24;20162;-86
2024/03/02 06:33:22;;;;;;;5.57;4.00;;;17.00;64.40;;;;;;5873334;24;20622;-87
2024/03/02 07:38:35;;;;;;;5.57;4.35;;;17.00;64.40;;;;;;6129357;23;20184;-88
2024/03/02 07:41:07;;;;;;;7.03;4.65;;;17.00;64.40;;;;;;6104368;23;20144;-87
2024/03/02 07:43:40;;;;;;;6.45;4.65;;;17.00;64.50;;;;;;6040267;23;20269;-87
2024/03/02 07:46:28;;;;;;;7.50;4.68;;;17.00;64.50;;;;;;6012259;23;20162;-87
2024/03/02 07:49:05;;;;;;;6.30;4.78;;;17.00;64.40;;;;;;6036646;23;20151;-88
2024/03/02 07:51:39;;;;;;;5.85;4.32;;;17.00;64.40;;;;;;6011807;23;20151;-87
2024/03/02 07:54:06;;;;;;;7.55;4.80;;;17.00;64.40;;;;;;6036406;23;20210;-87
2024/03/02 07:56:40;;;;;;;7.30;4.72;;;17.00;64.50;;;;;;6036400;23;20158;-87
2024/03/02 07:59:13;;;;;;;6.18;4.47;;;17.00;64.30;;;;;;6011464;23;20155;-87
2024/03/02 08:01:51;;;;;;;5.30;4.22;;;17.10;64.10;;;;;;6008857;23;20154;-87
2024/03/02 08:04:23;;;;;;;6.30;4.43;;;17.10;64.20;;;;;;5959749;24;20278;-87
2024/03/02 08:06:58;;;;;;;6.90;4.53;;;17.10;64.30;;;;;;5982054;24;20159;-89
2024/03/02 08:09:51;;;;;;;6.63;4.55;;;17.10;64.10;;;;;;5982387;24;20159;-86
2024/03/02 08:12:31;;;;;;;7.07;4.15;;;17.20;63.60;;;;;;5985671;23;20159;-88
2024/03/02 08:14:56;;;;;;;6.35;4.57;;;17.20;63.40;;;;;;5981610;23;20165;-88
2024/03/02 08:21:19;;;;;;;6.68;4.43;;;17.20;63.80;;;;;;5848590;24;20163;-88
2024/03/02 08:24:13;;;;;;;7.13;4.55;;;17.20;63.60;;;;;;5806573;24;20194;-87
2024/03/02 08:33:48;;;;;;;7.38;4.40;;;17.20;63.60;;;;;;5824806;24;20170;-87
2024/03/02 08:40:38;;;;;;;6.00;4.60;;;17.30;63.60;;;;;;5876482;24;20297;-89
2024/03/02 09:10:46;;;;;;;6.43;4.60;;;17.20;63.50;;;;;;5740370;25;20172;-89
2024/03/02 09:16:32;;;;;;;6.05;4.05;;;17.20;63.50;;;;;;5663549;25;20274;-88
2024/03/02 09:23:03;;;;;;;6.43;4.00;;;17.30;64.10;;;;;;5699022;24;20617;-86
2024/03/02 09:25:36;;;;;;;6.47;4.43;;;17.30;63.20;;;;;;5818180;24;20164;-87
2024/03/02 09:28:05;;;;;;;6.32;4.22;;;17.30;63.10;;;;;;5796741;24;20156;-88
2024/03/02 09:30:38;;;;;;;6.78;4.30;;;17.30;62.90;;;;;;5845152;24;20209;-88
2024/03/02 09:33:50;;;;;;;6.70;4.50;;;17.40;62.90;;;;;;5832536;24;20240;-88
2024/03/02 09:36:41;;;;;;;6.20;3.85;;;17.40;62.50;;;;;;5763659;24;20204;-88
2024/03/02 09:39:14;;;;;;;8.30;4.80;;;17.40;62.30;;;;;;5765057;24;20165;-87
2024/03/02 09:41:58;;;;;;;8.07;4.43;;;17.40;62.40;;;;;;5764608;24;20212;-87
2024/03/02 09:45:00;;;;;;;6.90;4.43;;;17.50;62.30;;;;;;5694581;25;20651;-88
2024/03/02 09:47:38;;;;;;;7.75;4.50;;;17.40;62.20;;;;;;5808780;24;20236;-88
2024/03/02 09:50:16;;;;;;;5.53;4.30;;;17.40;62.50;;;;;;5842539;24;20305;-88
2024/03/02 09:52:58;;;;;;;5.65;4.30;;;17.40;62.70;;;;;;5783642;24;20167;-88
2024/03/02 09:56:30;;;;;;;5.60;4.32;;;17.50;62.70;;;;;;5809291;24;20168;-87
2024/03/02 10:00:00;;;;;;;5.28;3.90;;;17.50;62.60;;;;;;5713016;25;20826;-88
2024/03/02 10:02:50;;;;;;;5.65;4.20;;;17.50;62.50;;;;;;5661528;25;20162;-89
2024/03/02 10:05:37;;;;;;;6.07;4.07;;;17.50;62.90;;;;;;5664464;25;20159;-88
2024/03/02 12:03:44;;;;;;;10.35;4.20;;;17.90;63.60;;;;;;6139598;23;20256;-89
2024/03/02 12:06:13;;;;;;;8.43;4.20;;;17.90;63.50;;;;;;6049131;23;20172;-89
2024/03/02 12:08:44;;;;;;;7.63;3.90;;;18.00;63.60;;;;;;5969818;23;20158;-88
2024/03/02 12:11:35;;;;;;;9.77;3.78;;;17.90;64.30;;;;;;5971313;23;20199;-89
2024/03/02 12:14:27;;;;;;;7.20;3.88;;;17.90;64.00;;;;;;5953844;23;20159;-89
2024/03/02 12:17:04;;;;;;;6.53;4.20;;;17.90;64.00;;;;;;5911977;24;20502;-90
2024/03/02 12:19:38;;;;;;;6.28;3.78;;;17.90;63.30;;;;;;5827518;24;20174;-88
2024/03/02 12:22:35;;;;;;;9.43;3.70;;;17.90;63.40;;;;;;5827678;24;20167;-87
2024/03/02 12:25:11;;;;;;;6.55;3.70;;;17.90;64.50;;;;;;5825891;24;20598;-88
2024/03/02 12:27:38;;;;;;;6.53;4.05;;;17.90;64.00;;;;;;5822608;24;20166;-88
2024/03/02 12:30:04;;;;;;;8.98;3.80;;;18.00;62.90;;;;;;5826310;24;20185;-87
2024/03/02 12:32:33;;;;;;;8.75;4.18;;;18.00;63.70;;;;;;5823879;24;20243;-87
2024/03/02 12:34:59;;;;;;;9.82;4.25;;;18.00;63.10;;;;;;5825284;24;20178;-87
2024/03/02 12:37:28;;;;;;;13.27;4.32;;;18.00;63.40;;;;;;5826573;24;20262;-87
2024/03/02 12:40:00;;;;;;;12.10;4.40;;;18.00;64.00;;;;;;5880724;24;20222;-87
2024/03/02 12:42:27;;;;;;;10.70;4.30;;;18.00;64.20;;;;;;5952851;24;20180;-86
2024/03/02 12:44:54;;;;;;;14.02;4.40;;;18.00;63.90;;;;;;5938569;24;20237;-88
2024/03/02 12:47:21;;;;;;;15.45;4.32;;;18.00;64.20;;;;;;5938433;24;20162;-87
2024/03/02 12:49:47;;;;;;;12.63;3.88;;;18.00;64.10;;;;;;5955215;23;20161;-86
2024/03/02 12:52:14;;;;;;;11.70;3.92;;;18.00;63.80;;;;;;6021798;23;20201;-87
2024/03/02 12:54:40;;;;;;;8.60;4.32;;;18.00;64.00;;;;;;6028111;23;20150;-86
2024/03/02 12:57:06;;;;;;;13.50;4.45;;;18.00;64.10;;;;;;6081294;23;20129;-88
2024/03/02 12:59:35;;;;;;;12.80;4.03;;;17.90;64.00;;;;;;6058534;23;20152;-88
2024/03/02 13:02:02;;;;;;;16.08;3.85;;;18.00;64.30;;;;;;6071170;23;20194;-87
2024/03/02 13:04:35;;;;;;;13.50;4.13;;;17.90;64.40;;;;;;6113906;23;20186;-87
2024/03/02 13:07:16;;;;;;;9.73;4.03;;;17.90;64.90;;;;;;6136456;23;20267;-87
2024/03/02 13:09:46;;;;;;;14.85;3.95;;;17.90;64.40;;;;;;6092715;23;20155;-88
2024/03/02 13:12:20;;;;;;;7.60;3.67;;;17.80;65.10;;;;;;6090386;23;20226;-88
2024/03/02 13:14:50;;;;;;;6.90;3.88;;;17.90;63.80;;;;;;6098115;23;20157;-87
2024/03/02 13:17:19;;;;;;;9.20;4.03;;;18.00;63.60;;;;;;6031704;23;20152;-88
2024/03/02 13:19:59;;;;;;;10.45;4.03;;;17.90;63.80;;;;;;6075917;23;20152;-87
2024/03/02 13:22:25;;;;;;;16.63;4.30;;;18.00;65.00;;;;;;6019653;23;20150;-88
2024/03/02 13:24:51;;;;;;;10.98;3.75;;;18.00;64.50;;;;;;5974603;23;20154;-88
2024/03/02 13:27:20;;;;;;;9.68;4.00;;;17.90;65.50;;;;;;5971495;23;20154;-87
2024/03/02 13:29:48;;;;;;;8.38;4.13;;;17.90;65.20;;;;;;5903137;24;20637;-88
2024/03/02 13:32:23;;;;;;;12.10;3.45;;;17.90;64.00;;;;;;5830888;24;20189;-87
2024/03/02 13:34:58;;;;;;;11.05;4.10;;;17.90;65.20;;;;;;5845077;24;20245;-87
2024/03/02 13:37:24;;;;;;;7.63;3.80;;;17.80;65.00;;;;;;5821295;24;20485;-87
2024/03/02 13:40:23;;;;;;;12.30;3.67;;;17.90;65.40;;;;;;5775010;24;20171;-86
2024/03/02 13:43:19;;;;;;;13.13;4.22;;;17.90;64.90;;;;;;5820985;24;20210;-87
2024/03/02 17:04:09;;;;;;;4.03;3.00;;;18.00;64.20;;;;;;6154646;23;20237;-88
2024/03/02 17:06:50;;;;;;;3.83;3.00;;;18.00;64.40;;;;;;6104941;23;20140;-87
2024/03/02 17:09:30;;;;;;;5.68;3.58;;;18.00;64.30;;;;;;6102794;23;20132;-88
2024/03/02 17:12:13;;;;;;;9.48;3.60;;;18.00;64.50;;;;;;6034766;23;20155;-87
2024/03/02 17:14:45;;;;;;;4.75;3.33;;;17.90;64.30;;;;;;6048075;23;20160;-88
2024/03/02 17:17:23;;;;;;;4.82;2.90;;;18.00;64.50;;;;;;6042153;23;20158;-87
2024/03/02 17:19:55;;;;;;;4.22;2.85;;;18.00;64.80;;;;;;5975614;23;20212;-87
2024/03/02 17:22:39;;;;;;;4.40;3.20;;;17.90;64.80;;;;;;6045277;23;20181;-87
2024/03/02 17:25:29;;;;;;;4.53;3.10;;;17.90;64.70;;;;;;6020328;23;20157;-87
2024/03/02 18:35:05;;;;;;;3.80;2.85;;;17.80;64.70;;;;;;6157149;23;20268;-87
2024/03/02 18:38:15;;;;;;;5.28;3.28;;;17.80;65.20;;;;;;6076632;23;20156;-88
2024/03/02 18:40:52;;;;;;;4.85;2.97;;;17.80;64.90;;;;;;6018863;23;20153;-87
2024/03/02 18:43:35;;;;;;;3.50;2.65;;;17.80;64.30;;;;;;5996352;23;20327;-88
2024/03/02 18:46:21;;;;;;;5.75;3.25;;;17.80;64.90;;;;;;6009885;23;20150;-88
2024/03/02 18:48:47;;;;;;;5.57;3.22;;;17.80;64.50;;;;;;5986783;23;20176;-88
2024/03/02 18:51:28;;;;;;;4.45;3.05;;;17.70;64.50;;;;;;5986091;23;20426;-88
2024/03/02 18:54:07;;;;;;;4.10;2.80;;;17.70;64.50;;;;;;5964580;23;20247;-88
2024/03/02 18:56:38;;;;;;;4.85;3.00;;;17.80;64.90;;;;;;5943614;23;20158;-88
2024/03/02 18:59:30;;;;;;;4.88;2.90;;;17.80;64.80;;;;;;5934804;24;20493;-87
2024/03/02 19:02:14;;;;;;;3.30;3.00;;;17.70;64.50;;;;;;5976068;24;20220;-88
2024/03/02 19:05:00;;;;;;;4.07;2.90;;;17.70;64.90;;;;;;5976757;24;20194;-87
2024/03/02 19:07:28;;;;;;;3.55;2.70;;;17.70;64.40;;;;;;5952049;24;20156;-88
2024/03/02 19:10:10;;;;;;;5.30;2.53;;;17.70;65.10;;;;;;5977082;24;20164;-88
2024/03/02 19:13:10;;;;;;;4.68;3.10;;;17.80;64.80;;;;;;5902201;24;20248;-87
2024/03/02 19:16:19;;;;;;;4.72;3.13;;;17.70;65.00;;;;;;5770610;24;20165;-88
2024/03/02 19:18:44;;;;;;;3.72;2.80;;;17.70;65.00;;;;;;5766969;24;20262;-87
2024/03/02 19:21:26;;;;;;;4.13;2.80;;;17.80;64.90;;;;;;5789181;24;20152;-88
2024/03/02 19:24:01;;;;;;;4.20;2.83;;;17.70;64.80;;;;;;5795193;24;20200;-87
2024/03/02 19:26:35;;;;;;;2.97;2.63;;;17.70;65.00;;;;;;5818136;24;20159;-88
2024/03/02 19:29:38;;;;;;;3.90;2.88;;;17.70;64.70;;;;;;5834935;24;20165;-87
2024/03/02 19:32:21;;;;;;;6.00;3.13;;;17.70;64.30;;;;;;5793334;24;20204;-88
2024/03/02 19:35:09;;;;;;;5.63;3.28;;;17.70;64.80;;;;;;5766856;24;20165;-87
2024/03/02 19:37:35;;;;;;;4.07;2.63;;;17.70;64.90;;;;;;5721667;25;20270;-87
2024/03/02 19:43:21;;;;;;;3.75;2.97;;;17.70;64.50;;;;;;5710507;25;20217;-87
2024/03/02 19:45:55;;;;;;;4.85;2.90;;;17.70;64.60;;;;;;5702417;24;20160;-87
2024/03/02 19:48:20;;;;;;;4.32;2.72;;;17.70;64.80;;;;;;5766660;24;20234;-88
2024/03/02 19:51:09;;;;;;;3.33;2.75;;;17.70;64.50;;;;;;5766965;24;20157;-88
2024/03/02 19:53:41;;;;;;;3.20;2.80;;;17.70;65.00;;;;;;5765268;24;20533;-88
2024/03/02 19:56:07;;;;;;;4.78;2.63;;;17.70;65.00;;;;;;5745831;24;20179;-88
2024/03/02 19:59:12;;;;;;;3.08;2.60;;;17.60;65.00;;;;;;5720990;25;20162;-88
2024/03/02 20:02:01;;;;;;;4.25;2.70;;;17.60;65.00;;;;;;5752567;24;20165;-87
2024/03/02 20:04:34;;;;;;;3.20;2.55;;;17.60;64.90;;;;;;5740878;24;20240;-88
2024/03/02 20:07:41;;;;;;;3.80;3.00;;;17.60;64.90;;;;;;5739576;24;20244;-87
2024/03/02 20:10:21;;;;;;;4.45;2.75;;;17.60;65.20;;;;;;5793084;24;20164;-88
2024/03/02 20:16:25;;;;;;;5.65;2.88;;;17.60;64.80;;;;;;5766973;24;20243;-87
2024/03/02 20:19:09;;;;;;;3.35;2.72;;;17.60;65.10;;;;;;5747205;24;20164;-88
2024/03/02 20:21:58;;;;;;;3.55;2.80;;;17.60;64.90;;;;;;5749289;24;20164;-88
2024/03/02 20:24:34;;;;;;;3.70;2.72;;;17.60;64.80;;;;;;5792790;24;20563;-87
2024/03/02 20:27:09;;;;;;;4.30;3.05;;;17.60;65.10;;;;;;5814882;24;20163;-88
2024/03/02 20:29:44;;;;;;;3.58;3.08;;;17.60;65.10;;;;;;5796340;24;20225;-87
2024/03/02 20:33:13;;;;;;;4.32;2.70;;;17.60;64.80;;;;;;5848664;24;20213;-88
2024/03/02 20:36:04;;;;;;;4.43;2.53;;;17.60;64.80;;;;;;5850909;24;20165;-88
2024/03/02 20:39:15;;;;;;;4.78;2.92;;;17.60;65.20;;;;;;5823403;24;20253;-87
2024/03/02 20:41:50;;;;;;;3.83;2.92;;;17.60;64.80;;;;;;5840241;24;20174;-88
2024/03/02 20:44:17;;;;;;;3.50;2.72;;;17.60;64.40;;;;;;5828385;24;20632;-88
2024/03/02 20:47:00;;;;;;;3.28;2.88;;;17.60;65.20;;;;;;5822830;24;20590;-88
2024/03/02 20:49:33;;;;;;;3.58;2.90;;;17.70;64.40;;;;;;5897310;24;20661;-88
2024/03/02 20:52:21;;;;;;;3.90;3.20;;;17.60;65.40;;;;;;5807482;24;20163;-89
2024/03/02 20:55:37;;;;;;;2.97;2.63;;;17.60;65.40;;;;;;5796459;24;20159;-88
2024/03/02 20:58:13;;;;;;;3.28;2.65;;;17.60;65.80;;;;;;5807478;24;20167;-88
2024/03/02 21:01:21;;;;;;;2.80;2.40;;;17.60;65.70;;;;;;5852455;24;20189;-87
2024/03/02 21:07:47;;;;;;;4.13;2.80;;;17.60;65.70;;;;;;5845702;24;20162;-88
2024/03/02 21:10:22;;;;;;;3.40;2.80;;;17.60;65.40;;;;;;5817877;24;20186;-88
2024/03/02 21:12:54;;;;;;;3.38;2.90;;;17.50;65.20;;;;;;5779066;24;20316;-88
2024/03/02 21:15:47;;;;;;;3.35;2.78;;;17.70;65.10;;;;;;5740586;24;20177;-87
2024/03/02 21:18:28;;;;;;;4.60;2.88;;;17.60;65.20;;;;;;5731826;25;20687;-86
2024/03/02 22:34:27;;;;;;;3.05;2.63;;;17.50;65.60;;;;;;6201037;22;20201;-85
2024/03/02 22:37:14;;;;;;;4.38;3.35;;;17.50;65.70;;;;;;5985542;23;20249;-86
2024/03/02 22:40:08;;;;;;;3.50;2.63;;;17.50;65.70;;;;;;5965644;23;20155;-86
2024/03/02 22:42:40;;;;;;;3.17;2.63;;;17.40;65.50;;;;;;6010524;23;20154;-87
2024/03/02 22:45:29;;;;;;;3.75;2.92;;;17.50;65.70;;;;;;5963329;23;20162;-87
2024/03/02 22:47:58;;;;;;;4.28;2.80;;;17.40;65.60;;;;;;5966422;23;20155;-87
2024/03/02 22:50:38;;;;;;;4.28;2.80;;;17.40;65.80;;;;;;5906520;24;20159;-87
2024/03/02 22:53:18;;;;;;;3.80;2.97;;;17.40;65.70;;;;;;5855298;24;20255;-88
2024/03/02 23:54:00;;;;;;;3.35;2.75;;;17.30;65.60;;;;;;6159931;23;20205;-86
2024/03/02 23:56:32;;;;;;;3.80;2.83;;;17.40;66.00;;;;;;6026072;23;20159;-87
2024/03/02 23:59:15;;;;;;;4.28;2.97;;;17.30;65.60;;;;;;6056773;23;20187;-86
